Airfield :
LOGIN :

Register | Disclaimer

   EN    FR    IT 

 










Legend :    VFR   Marginal VFR   IFR   Intensive IFR   Very Intensive IFR
Visi :
Ceiling :
>= 8 km
>= 3000ft
5 to 8 km
1000 to 3000 ft
1500m to 5 km
500 to 1000 ft
800 to 1500m
200 to 500 ft
< 800m
< 200 ft
Symbols :   Thunderstorms  Fog  Heavy snow  Heavy precipitations  Wind > 20 kt
SIGMETs :     Misc.  Thunderstorms  Icing  Turbulence  Mountain Waves  Volcanic Ashes







- Airport Elevation : 26 ft


ETNT - Wittmundhaven AB

CURRENT METAR :
  • 190820Z 23012KT 9999 BKN007 BKN040 06/05 Q1013 GRN BLU TEMPO GRN

EXPIRED METARs :
  • 190756Z 23010KT 9999 BKN007 BKN043 06/04 Q1013 GRN BLU TEMPO GRN
  • 190720Z 23009KT 9999 SCT010 SCT140 05/04 Q1013 BLU+BLU TEMPO GRN
  • 190651Z 23009KT 9999 SCT008 SCT140 05/04 Q1013 BLU+BLU TEMPO GRN
  • 190620Z 24010KT 9999 BKN007 06/04 Q1012 GRN WHT TEMPO GRN

TAF TAF ETNT
Valid from the 19 at 09:00 until the 19 at 18:00 UTC


190800Z 1909/1918 25013KT 9999 NSW SCT007 BKN030
TEMPO 1909/1910 24013KT 4000 BR BKN007
TEMPO 1910/1918 26015G28KT 9999 NSW SCT015 BKN030 BY ETGL
No reported NOTAMs for that airfield.



MET'MAP, your aeronautical weather chart ! - Copyright ORBIFLY December 2007 - Disclaimer

ORBIFLY MET'MAP TEAM :

Programming & Development : Alexandra Zaïnal
Concept & Development : Baudouin d'Aumeries
Co-Development & Prog : Marc-Olivier Méhu
Technical & hardware support : Manuel Goepfert

Contact : metmap@orbifly.com




SOURCES & CREDITS :

   NOAA